Time;durP1;ratioP1;P1;durP2;ratioP2;P2;SDS_P1;SDS_P2;PMS_P1;PMS_P2;Temp;Humidity;BMP_temperature;BMP_pressure;BME280_temperature;BME280_humidity;BME280_pressure;Samples;Min_cycle;Max_cycle;Signal;HPM_P1;HPM_P2
2024/01/15 00:01:27;;;;;;;23.58;9.35;;;-1.80;99.90;;;;;;4966656;28;20027;-73
2024/01/15 00:03:52;;;;;;;22.75;9.52;;;-1.70;99.90;;;;;;4965047;28;20039;-72
2024/01/15 00:06:18;;;;;;;25.23;9.45;;;-1.60;99.90;;;;;;4964736;28;20043;-72
2024/01/15 00:08:43;;;;;;;24.83;10.43;;;-1.60;99.90;;;;;;4965963;28;20054;-73
2024/01/15 00:11:09;;;;;;;23.30;9.80;;;-1.50;99.90;;;;;;4967124;28;20038;-73
2024/01/15 00:13:35;;;;;;;26.15;10.77;;;-1.50;99.90;;;;;;4963424;28;20135;-73
2024/01/15 00:16:00;;;;;;;23.08;8.85;;;-1.50;99.90;;;;;;4966618;28;20054;-73
2024/01/15 00:18:26;;;;;;;23.73;9.25;;;-1.50;99.90;;;;;;4967576;28;20054;-73
2024/01/15 00:20:51;;;;;;;20.80;8.73;;;-1.40;99.90;;;;;;4965822;28;20169;-73
2024/01/15 00:23:17;;;;;;;23.63;10.23;;;-1.40;99.90;;;;;;4962947;28;20061;-73
2024/01/15 00:25:42;;;;;;;23.50;9.82;;;-1.30;99.90;;;;;;4966255;28;20038;-73
2024/01/15 00:28:08;;;;;;;26.73;10.98;;;-1.30;99.90;;;;;;4964990;28;20114;-73
2024/01/15 00:30:34;;;;;;;26.08;12.05;;;-1.30;99.90;;;;;;4966634;28;20027;-72
2024/01/15 00:32:59;;;;;;;27.77;10.77;;;-1.30;99.90;;;;;;4967355;28;20026;-72
2024/01/15 00:35:25;;;;;;;26.40;9.90;;;-1.30;99.90;;;;;;4966589;28;20515;-72
2024/01/15 00:37:50;;;;;;;22.92;9.88;;;-1.20;99.90;;;;;;4966864;28;20632;-72
2024/01/15 00:40:16;;;;;;;24.13;10.25;;;-1.20;99.90;;;;;;4967017;28;20049;-72
2024/01/15 00:42:41;;;;;;;26.30;10.15;;;-1.20;99.90;;;;;;4966567;28;20047;-73
2024/01/15 00:45:08;;;;;;;24.27;9.20;;;-1.20;99.90;;;;;;4966463;28;20038;-73
2024/01/15 00:47:34;;;;;;;24.02;8.90;;;-1.20;99.90;;;;;;4966852;28;20466;-72
2024/01/15 00:50:00;;;;;;;21.80;9.75;;;-1.20;99.90;;;;;;4966974;28;20035;-73
2024/01/15 00:52:26;;;;;;;22.50;8.80;;;-1.10;99.90;;;;;;4967428;28;20037;-73
2024/01/15 00:54:51;;;;;;;27.88;9.75;;;-1.10;99.90;;;;;;4966505;28;20063;-73
2024/01/15 00:57:18;;;;;;;23.55;9.80;;;-1.10;99.90;;;;;;4965549;28;20111;-72
2024/01/15 00:59:44;;;;;;;23.27;10.27;;;-1.10;99.90;;;;;;4966136;28;20542;-72
2024/01/15 01:02:10;;;;;;;26.05;9.23;;;-1.10;99.90;;;;;;4964020;28;20023;-72
2024/01/15 01:04:36;;;;;;;23.58;9.23;;;-1.00;99.90;;;;;;4966424;28;20031;-72
2024/01/15 01:07:01;;;;;;;20.88;8.98;;;-1.00;99.90;;;;;;4965407;28;20054;-73
2024/01/15 01:09:29;;;;;;;21.95;9.07;;;-1.00;99.90;;;;;;4966145;28;20048;-73
2024/01/15 01:11:56;;;;;;;24.55;9.45;;;-1.00;99.90;;;;;;4967524;28;20535;-72
2024/01/15 01:14:22;;;;;;;21.83;8.35;;;-1.00;99.90;;;;;;4964666;28;20070;-73
2024/01/15 01:16:47;;;;;;;23.00;8.15;;;-1.00;99.90;;;;;;4965766;28;21316;-72
2024/01/15 01:19:13;;;;;;;22.98;8.25;;;-1.00;99.90;;;;;;4966651;28;20518;-75
2024/01/15 01:21:38;;;;;;;22.80;8.93;;;-1.00;99.90;;;;;;4965206;28;20035;-73
2024/01/15 01:24:04;;;;;;;21.95;8.45;;;-0.90;99.90;;;;;;4966042;28;20035;-73
2024/01/15 01:26:30;;;;;;;20.60;7.75;;;-0.90;99.90;;;;;;4969284;28;20085;-73
2024/01/15 01:28:56;;;;;;;18.30;8.15;;;-0.90;99.90;;;;;;4970357;28;20394;-73
2024/01/15 01:31:21;;;;;;;18.80;7.70;;;-0.90;99.90;;;;;;4967869;28;20050;-73
2024/01/15 01:33:47;;;;;;;22.05;9.02;;;-0.90;99.90;;;;;;4967374;28;20065;-73
2024/01/15 01:36:12;;;;;;;19.00;7.68;;;-0.90;99.90;;;;;;4968643;28;20549;-73
2024/01/15 01:38:39;;;;;;;21.50;8.38;;;-0.90;99.90;;;;;;4968572;28;20046;-73
2024/01/15 01:41:05;;;;;;;21.70;8.45;;;-0.90;99.90;;;;;;4966461;28;20089;-73
2024/01/15 01:43:30;;;;;;;20.83;8.88;;;-0.90;99.90;;;;;;4969077;28;20507;-73
2024/01/15 01:46:00;;;;;;;21.23;8.20;;;-0.90;99.90;;;;;;4969145;28;20027;-73
2024/01/15 01:48:27;;;;;;;19.52;8.07;;;-0.90;99.90;;;;;;4968751;28;20046;-72
2024/01/15 01:50:57;;;;;;;22.30;8.10;;;-0.90;99.90;;;;;;4970080;28;20026;-72
2024/01/15 01:53:25;;;;;;;22.25;8.85;;;-0.80;99.90;;;;;;4965683;28;20027;-73
2024/01/15 01:55:51;;;;;;;18.92;7.53;;;-0.80;99.90;;;;;;4969091;28;20489;-72
2024/01/15 01:58:18;;;;;;;23.38;8.77;;;-0.80;99.90;;;;;;4967890;28;20062;-72
2024/01/15 02:00:44;;;;;;;25.33;8.98;;;-0.80;99.90;;;;;;4968710;28;20058;-72
2024/01/15 02:03:09;;;;;;;21.88;8.10;;;-0.80;99.90;;;;;;4969865;28;20055;-73
2024/01/15 02:05:36;;;;;;;23.02;9.10;;;-0.80;99.90;;;;;;4968487;28;20042;-73
2024/01/15 02:08:01;;;;;;;22.05;8.35;;;-0.80;99.90;;;;;;4969337;28;20426;-72
2024/01/15 02:10:27;;;;;;;21.75;8.00;;;-0.80;99.90;;;;;;4970181;28;20057;-72
2024/01/15 02:12:52;;;;;;;21.25;7.90;;;-0.80;99.90;;;;;;4966933;28;20110;-73
2024/01/15 02:15:18;;;;;;;21.13;7.72;;;-0.80;99.90;;;;;;4968807;28;20026;-73
2024/01/15 02:18:07;;;;;;;18.63;7.55;;;-0.80;99.90;;;;;;4966612;28;20094;-73
2024/01/15 02:20:33;;;;;;;24.50;8.25;;;-0.80;99.90;;;;;;4968220;28;20022;-73
2024/01/15 02:23:17;;;;;;;20.02;7.13;;;-0.80;99.90;;;;;;4970482;28;20529;-73
2024/01/15 02:25:44;;;;;;;18.75;7.22;;;-0.80;99.90;;;;;;4966081;28;20039;-73
2024/01/15 02:28:12;;;;;;;18.02;7.63;;;-0.80;99.90;;;;;;4967542;28;20121;-72
2024/01/15 02:30:39;;;;;;;20.10;7.20;;;-0.80;99.90;;;;;;4969725;28;20098;-72
2024/01/15 02:33:06;;;;;;;16.95;7.35;;;-0.80;99.90;;;;;;4967555;28;20027;-72
2024/01/15 02:35:32;;;;;;;21.25;8.20;;;-0.80;99.90;;;;;;4967249;28;20541;-72
2024/01/15 02:37:58;;;;;;;21.23;8.30;;;-0.80;99.90;;;;;;4968884;28;20034;-72
2024/01/15 02:40:24;;;;;;;19.38;8.27;;;-0.70;99.90;;;;;;4969082;28;20038;-72
2024/01/15 02:42:49;;;;;;;19.70;7.13;;;-0.80;99.90;;;;;;4968992;28;20035;-73
2024/01/15 02:45:15;;;;;;;21.00;8.57;;;-0.70;99.90;;;;;;4967495;28;20397;-73
2024/01/15 02:47:40;;;;;;;18.42;8.18;;;-0.80;99.90;;;;;;4968051;28;20058;-73
2024/01/15 02:50:06;;;;;;;25.65;8.98;;;-0.70;99.90;;;;;;4965616;28;20888;-72
2024/01/15 02:52:32;;;;;;;20.58;8.30;;;-0.80;99.90;;;;;;4967751;28;20065;-72
2024/01/15 02:54:57;;;;;;;20.48;7.72;;;-0.70;99.90;;;;;;4969292;28;20054;-72
2024/01/15 02:57:23;;;;;;;21.75;8.75;;;-0.80;99.90;;;;;;4967240;28;20533;-72
2024/01/15 02:59:49;;;;;;;20.08;7.75;;;-0.70;99.90;;;;;;4968504;28;20111;-72
2024/01/15 03:02:14;;;;;;;15.45;7.13;;;-0.80;99.90;;;;;;4968875;28;20034;-72
2024/01/15 03:04:44;;;;;;;20.33;7.15;;;-0.70;99.90;;;;;;4967247;28;20502;-72
2024/01/15 03:07:09;;;;;;;22.55;7.95;;;-0.80;99.90;;;;;;4969775;28;20031;-72
2024/01/15 03:09:35;;;;;;;16.08;6.90;;;-0.70;99.90;;;;;;4968079;28;20085;-72
2024/01/15 03:12:01;;;;;;;18.67;6.70;;;-0.80;99.90;;;;;;4967838;28;20057;-72
2024/01/15 03:14:27;;;;;;;19.42;6.75;;;-0.80;99.90;;;;;;4965114;28;20114;-72
2024/01/15 03:16:53;;;;;;;20.20;6.82;;;-0.70;99.90;;;;;;4970122;28;20042;-72
2024/01/15 03:19:18;;;;;;;19.05;7.03;;;-0.70;99.90;;;;;;4969485;28;20035;-72
2024/01/15 03:21:44;;;;;;;16.23;6.03;;;-0.70;99.90;;;;;;4966373;28;20078;-72
2024/01/15 03:24:10;;;;;;;16.27;6.30;;;-0.70;99.90;;;;;;4969612;28;20027;-72
2024/01/15 03:26:35;;;;;;;15.10;6.65;;;-0.70;99.90;;;;;;4967483;28;20469;-73
2024/01/15 03:29:01;;;;;;;15.75;6.57;;;-0.70;99.90;;;;;;4966809;28;20033;-73
2024/01/15 03:31:27;;;;;;;16.35;6.72;;;-0.70;99.90;;;;;;4965716;28;20057;-72
2024/01/15 03:33:52;;;;;;;21.30;7.35;;;-0.70;99.90;;;;;;4966711;28;20076;-73
2024/01/15 03:36:18;;;;;;;18.90;7.20;;;-0.60;99.90;;;;;;4965009;28;20049;-73
2024/01/15 03:38:43;;;;;;;18.40;7.28;;;-0.60;99.90;;;;;;4968462;28;20077;-73
2024/01/15 03:41:09;;;;;;;18.02;6.82;;;-0.70;99.90;;;;;;4967447;28;20050;-72
2024/01/15 03:43:35;;;;;;;21.85;6.90;;;-0.70;99.90;;;;;;4966073;28;20210;-72
2024/01/15 03:46:01;;;;;;;20.80;7.68;;;-0.70;99.90;;;;;;4969741;28;20026;-72
2024/01/15 03:48:27;;;;;;;17.95;7.00;;;-0.70;99.90;;;;;;4958280;28;20027;-72
2024/01/15 03:50:53;;;;;;;18.58;7.25;;;-0.60;99.90;;;;;;4947187;28;20094;-72
2024/01/15 03:53:18;;;;;;;18.88;7.95;;;-0.60;99.90;;;;;;4944589;28;20082;-72
2024/01/15 03:55:44;;;;;;;20.83;8.13;;;-0.60;99.90;;;;;;4944713;28;20030;-72
2024/01/15 03:58:10;;;;;;;19.90;7.03;;;-0.60;99.90;;;;;;4943038;28;20065;-72
2024/01/15 04:00:35;;;;;;;22.58;8.90;;;-0.60;99.90;;;;;;4950191;28;20037;-72
2024/01/15 04:03:01;;;;;;;22.13;7.80;;;-0.60;99.90;;;;;;4948124;28;20485;-72
2024/01/15 04:05:27;;;;;;;20.17;8.32;;;-0.60;99.90;;;;;;4943011;28;20074;-72
2024/01/15 04:07:52;;;;;;;24.02;8.13;;;-0.60;99.90;;;;;;4947426;28;20045;-72
2024/01/15 04:10:18;;;;;;;21.42;8.88;;;-0.60;99.90;;;;;;4945112;28;20031;-72
2024/01/15 04:12:46;;;;;;;24.25;9.48;;;-0.60;99.90;;;;;;4945228;28;21127;-72
2024/01/15 04:15:12;;;;;;;22.38;7.63;;;-0.50;99.90;;;;;;4946270;28;20107;-72
2024/01/15 04:17:37;;;;;;;23.23;8.38;;;-0.50;99.90;;;;;;4948473;28;20051;-72
2024/01/15 04:20:03;;;;;;;22.13;8.55;;;-0.50;99.90;;;;;;4944660;28;20042;-72
2024/01/15 04:22:29;;;;;;;23.58;8.50;;;-0.60;99.90;;;;;;4956407;28;20035;-72
2024/01/15 04:24:55;;;;;;;26.38;9.18;;;-0.60;99.90;;;;;;4964819;28;20476;-72
2024/01/15 04:27:20;;;;;;;19.48;8.02;;;-0.50;99.90;;;;;;4965934;28;20035;-72
2024/01/15 04:29:46;;;;;;;22.23;8.85;;;-0.50;99.90;;;;;;4963477;28;20067;-72
2024/01/15 04:32:11;;;;;;;23.55;8.45;;;-0.60;99.90;;;;;;4966198;28;20022;-73
2024/01/15 04:34:37;;;;;;;22.00;8.75;;;-0.50;99.90;;;;;;4969378;28;20394;-72
2024/01/15 04:37:03;;;;;;;20.52;8.32;;;-0.50;99.90;;;;;;4964140;28;20043;-72
2024/01/15 04:39:29;;;;;;;20.42;8.77;;;-0.50;99.90;;;;;;4965908;28;20490;-73
2024/01/15 04:41:55;;;;;;;20.77;8.18;;;-0.60;99.90;;;;;;4967327;28;20580;-72
2024/01/15 04:44:20;;;;;;;22.30;8.80;;;-0.50;99.90;;;;;;4965859;28;20027;-73
2024/01/15 04:46:46;;;;;;;19.48;8.02;;;-0.50;99.90;;;;;;4965233;28;20066;-72
2024/01/15 04:49:11;;;;;;;23.08;8.10;;;-0.50;99.90;;;;;;4962962;28;20089;-72
2024/01/15 04:51:37;;;;;;;20.95;8.60;;;-0.50;99.90;;;;;;4947693;28;20063;-72
2024/01/15 04:54:03;;;;;;;25.02;9.48;;;-0.50;99.90;;;;;;4942014;28;20031;-73
2024/01/15 04:56:29;;;;;;;22.98;9.20;;;-0.50;99.90;;;;;;4945296;28;20525;-72
2024/01/15 04:58:54;;;;;;;18.92;8.32;;;-0.50;99.90;;;;;;4946606;28;20038;-71
2024/01/15 05:01:20;;;;;;;25.30;10.48;;;-0.50;99.90;;;;;;4946913;28;20121;-71
2024/01/15 05:03:45;;;;;;;26.30;8.48;;;-0.50;99.90;;;;;;4951649;28;20050;-72
2024/01/15 05:06:11;;;;;;;22.92;9.38;;;-0.60;99.90;;;;;;4972391;28;20486;-72
2024/01/15 05:08:37;;;;;;;25.73;9.55;;;-0.50;99.90;;;;;;4968702;28;20018;-71
2024/01/15 05:11:02;;;;;;;22.55;9.50;;;-0.50;99.90;;;;;;4969636;28;20077;-71
2024/01/15 05:13:28;;;;;;;25.83;10.15;;;-0.60;99.90;;;;;;4972808;28;20027;-72
2024/01/15 05:15:53;;;;;;;22.55;9.57;;;-0.50;99.90;;;;;;4971862;28;20026;-72
2024/01/15 05:18:19;;;;;;;20.52;9.55;;;-0.60;99.90;;;;;;4969291;28;20462;-72
2024/01/15 05:20:45;;;;;;;24.42;9.93;;;-0.60;99.90;;;;;;4972904;28;20166;-72
2024/01/15 05:23:10;;;;;;;27.42;10.25;;;-0.60;99.90;;;;;;4971450;28;20046;-72
2024/01/15 05:25:36;;;;;;;22.75;9.18;;;-0.60;99.90;;;;;;4970833;28;20027;-72
2024/01/15 05:28:02;;;;;;;21.92;9.02;;;-0.60;99.90;;;;;;4982444;28;20568;-72
2024/01/15 05:30:28;;;;;;;18.42;7.97;;;-0.60;99.90;;;;;;4969886;28;20415;-73
2024/01/15 05:32:54;;;;;;;23.20;9.40;;;-0.60;99.90;;;;;;4971306;28;20069;-72
2024/01/15 05:35:19;;;;;;;22.92;9.52;;;-0.60;99.90;;;;;;4972452;28;20027;-72
2024/01/15 05:37:45;;;;;;;25.35;8.07;;;-0.60;99.90;;;;;;4970569;28;20034;-72
2024/01/15 05:40:15;;;;;;;22.17;8.88;;;-0.60;99.90;;;;;;4968986;28;20421;-72
2024/01/15 05:42:41;;;;;;;21.52;8.60;;;-0.60;99.90;;;;;;4966427;28;20027;-72
2024/01/15 05:45:07;;;;;;;21.27;8.68;;;-0.60;99.90;;;;;;4968707;28;20027;-72
2024/01/15 05:47:33;;;;;;;23.08;9.18;;;-0.60;99.90;;;;;;4970994;28;20026;-72
2024/01/15 05:50:00;;;;;;;20.48;9.20;;;-0.50;99.90;;;;;;4970296;28;20030;-72
2024/01/15 05:52:25;;;;;;;22.10;7.90;;;-0.60;99.90;;;;;;4968938;28;20046;-72
2024/01/15 05:54:51;;;;;;;17.30;8.27;;;-0.50;99.90;;;;;;4966468;28;20035;-71
2024/01/15 05:57:17;;;;;;;20.65;8.02;;;-0.50;99.90;;;;;;4970002;28;20039;-71
2024/01/15 05:59:44;;;;;;;19.33;8.60;;;-0.50;99.90;;;;;;4968187;28;20497;-72
2024/01/15 06:02:10;;;;;;;18.63;8.05;;;-0.50;99.90;;;;;;4971922;28;20027;-71
2024/01/15 06:04:36;;;;;;;18.45;8.00;;;-0.50;99.90;;;;;;4971874;28;20156;-72
2024/01/15 06:07:02;;;;;;;18.13;8.65;;;-0.50;99.90;;;;;;4970435;28;20081;-72
2024/01/15 06:09:28;;;;;;;20.08;8.00;;;-0.50;99.90;;;;;;4971266;28;20069;-72
2024/01/15 06:11:54;;;;;;;22.65;8.70;;;-0.50;99.90;;;;;;4968750;28;20022;-73
2024/01/15 06:14:19;;;;;;;21.35;9.23;;;-0.50;99.90;;;;;;4967146;28;20035;-73
2024/01/15 06:16:45;;;;;;;21.25;8.80;;;-0.40;99.90;;;;;;4964717;28;20038;-73
2024/01/15 06:19:11;;;;;;;21.25;7.95;;;-0.40;99.90;;;;;;4964391;28;20058;-72
2024/01/15 06:21:36;;;;;;;24.67;9.85;;;-0.40;99.90;;;;;;4969362;28;20070;-73
2024/01/15 06:24:02;;;;;;;19.15;8.57;;;-0.50;99.90;;;;;;4970114;28;20026;-73
2024/01/15 06:26:27;;;;;;;20.55;9.15;;;-0.40;99.90;;;;;;4971392;28;20784;-72
2024/01/15 06:28:53;;;;;;;23.33;9.02;;;-0.50;99.90;;;;;;4965200;28;20486;-72
2024/01/15 06:31:19;;;;;;;23.88;9.43;;;-0.50;99.90;;;;;;4967728;28;20045;-71
2024/01/15 06:33:47;;;;;;;25.73;10.02;;;-0.40;99.90;;;;;;4969599;28;20034;-71
2024/01/15 06:36:12;;;;;;;23.05;9.65;;;-0.50;99.90;;;;;;4969682;28;20022;-71
2024/01/15 06:38:38;;;;;;;25.15;9.85;;;-0.40;99.90;;;;;;4969466;28;20525;-72
2024/01/15 06:41:04;;;;;;;23.65;10.05;;;-0.50;99.90;;;;;;4972139;28;20023;-71
2024/01/15 06:43:29;;;;;;;24.33;10.18;;;-0.50;99.90;;;;;;4971308;28;20389;-72
2024/01/15 06:45:55;;;;;;;22.90;10.43;;;-0.50;99.90;;;;;;4955873;28;20505;-72
2024/01/15 06:48:21;;;;;;;22.00;9.18;;;-0.40;99.90;;;;;;4968964;28;20027;-71
2024/01/15 06:50:46;;;;;;;20.33;8.55;;;-0.40;99.90;;;;;;4969504;28;20019;-71
2024/01/15 06:53:12;;;;;;;20.73;9.10;;;-0.40;99.90;;;;;;4965071;28;20490;-70
2024/01/15 06:55:38;;;;;;;19.20;7.90;;;-0.40;99.90;;;;;;4971353;28;20027;-70
2024/01/15 06:58:04;;;;;;;20.27;8.20;;;-0.40;99.90;;;;;;4970854;28;20029;-71
2024/01/15 07:00:30;;;;;;;23.30;8.82;;;-0.40;99.90;;;;;;4965732;28;20031;-70
2024/01/15 07:02:56;;;;;;;23.15;9.30;;;-0.40;99.90;;;;;;4968981;28;20039;-70
2024/01/15 07:05:22;;;;;;;18.42;8.90;;;-0.40;99.90;;;;;;4968240;28;20102;-70
2024/01/15 07:07:48;;;;;;;20.13;8.40;;;-0.40;99.90;;;;;;4971064;28;20098;-70
2024/01/15 07:10:13;;;;;;;20.17;8.02;;;-0.40;99.90;;;;;;4971053;28;20030;-70
2024/01/15 07:12:41;;;;;;;19.33;8.32;;;-0.40;99.90;;;;;;4968088;28;20037;-71
2024/01/15 07:15:08;;;;;;;21.38;8.15;;;-0.40;99.90;;;;;;4962823;28;20034;-71
2024/01/15 07:17:34;;;;;;;19.88;8.25;;;-0.30;99.90;;;;;;4967809;28;20525;-70
2024/01/15 07:19:59;;;;;;;20.63;8.68;;;-0.30;99.90;;;;;;4966351;28;20519;-70
2024/01/15 07:22:25;;;;;;;20.73;8.05;;;-0.30;99.90;;;;;;4961095;28;20050;-70
2024/01/15 07:24:50;;;;;;;20.83;8.05;;;-0.30;99.90;;;;;;4970087;28;20026;-70
2024/01/15 07:27:16;;;;;;;21.98;7.80;;;-0.40;99.90;;;;;;4969040;28;20042;-70
2024/01/15 07:29:42;;;;;;;19.60;7.65;;;-0.30;99.90;;;;;;4967273;28;20027;-70
2024/01/15 07:32:08;;;;;;;20.40;8.00;;;-0.30;99.90;;;;;;4985101;28;20034;-70
2024/01/15 07:34:34;;;;;;;16.25;6.70;;;-0.30;99.90;;;;;;4967289;28;20027;-70
2024/01/15 07:36:59;;;;;;;16.67;6.75;;;-0.30;99.90;;;;;;4964930;28;20453;-71
2024/01/15 07:39:25;;;;;;;14.45;6.40;;;-0.30;99.90;;;;;;4970613;28;20119;-70
2024/01/15 07:41:51;;;;;;;14.40;6.05;;;-0.30;99.90;;;;;;4970095;28;20641;-70
2024/01/15 07:44:17;;;;;;;17.75;5.97;;;-0.30;99.90;;;;;;4965009;28;20098;-71
2024/01/15 07:46:47;;;;;;;16.85;5.80;;;-0.30;99.90;;;;;;4985208;28;20401;-70
2024/01/15 07:49:13;;;;;;;15.38;5.55;;;-0.20;99.90;;;;;;4971690;28;20026;-70
2024/01/15 07:51:40;;;;;;;12.98;5.05;;;-0.20;99.90;;;;;;4970093;28;20022;-70
2024/01/15 07:54:06;;;;;;;14.27;5.00;;;-0.20;99.90;;;;;;4967494;28;20122;-70
2024/01/15 07:56:32;;;;;;;11.77;5.30;;;-0.20;99.90;;;;;;4967095;28;20034;-70
2024/01/15 07:58:58;;;;;;;12.60;4.97;;;-0.10;99.90;;;;;;4968083;28;20058;-70
2024/01/15 08:01:24;;;;;;;13.68;5.30;;;-0.10;99.90;;;;;;4966339;28;20371;-70
2024/01/15 08:03:50;;;;;;;11.52;5.00;;;-0.10;99.90;;;;;;4969227;28;20022;-70
2024/01/15 08:06:16;;;;;;;15.07;6.25;;;-0.10;99.90;;;;;;4968691;28;20085;-70
2024/01/15 08:08:41;;;;;;;13.88;5.40;;;0.00;99.90;;;;;;4968230;28;20082;-70
2024/01/15 08:11:07;;;;;;;14.27;5.45;;;0.00;99.90;;;;;;4967130;28;20019;-71
2024/01/15 08:13:33;;;;;;;9.10;4.70;;;0.00;99.90;;;;;;4969743;28;20023;-71
2024/01/15 08:15:58;;;;;;;9.35;4.00;;;0.10;99.90;;;;;;4968795;28;20490;-70
2024/01/15 08:18:25;;;;;;;8.73;3.60;;;0.10;99.90;;;;;;4969087;28;20505;-70
2024/01/15 08:20:52;;;;;;;9.02;3.65;;;0.10;99.90;;;;;;4969658;28;20026;-70
2024/01/15 08:23:17;;;;;;;9.25;4.10;;;0.10;99.90;;;;;;4965461;28;20094;-70
2024/01/15 08:25:43;;;;;;;7.03;3.30;;;0.10;99.90;;;;;;4967094;28;20114;-70
2024/01/15 08:28:08;;;;;;;7.38;3.20;;;0.20;99.90;;;;;;4969886;28;21466;-70
2024/01/15 08:30:34;;;;;;;7.32;2.67;;;0.20;99.90;;;;;;4970722;28;20031;-70
2024/01/15 08:33:00;;;;;;;10.68;3.00;;;0.30;99.90;;;;;;4969662;28;20117;-70
2024/01/15 08:35:26;;;;;;;8.60;2.97;;;0.30;99.90;;;;;;4970231;28;20081;-70
2024/01/15 08:37:55;;;;;;;6.97;2.78;;;0.30;99.90;;;;;;4972769;28;20039;-70
2024/01/15 08:40:20;;;;;;;8.63;2.92;;;0.40;99.90;;;;;;4974613;28;20121;-70
2024/01/15 08:42:46;;;;;;;6.68;2.80;;;0.40;99.90;;;;;;4972290;28;20182;-70
2024/01/15 08:45:12;;;;;;;6.25;2.92;;;0.40;99.90;;;;;;4972493;28;20149;-70
2024/01/15 08:47:38;;;;;;;7.93;2.83;;;0.40;99.90;;;;;;4972824;28;20027;-70
2024/01/15 08:50:05;;;;;;;9.27;2.88;;;0.40;99.90;;;;;;4971089;28;20033;-70
2024/01/15 08:52:30;;;;;;;11.85;3.00;;;0.40;99.90;;;;;;4970043;28;20389;-70
2024/01/15 08:54:59;;;;;;;6.35;2.80;;;0.40;99.90;;;;;;4969202;28;20035;-70
2024/01/15 08:57:25;;;;;;;9.57;3.20;;;0.50;99.90;;;;;;4973590;28;20026;-70
2024/01/15 08:59:51;;;;;;;7.05;2.25;;;0.50;99.90;;;;;;4970332;28;20046;-69
2024/01/15 09:02:17;;;;;;;7.60;2.42;;;0.50;99.90;;;;;;4972236;28;20505;-70
2024/01/15 09:04:42;;;;;;;6.28;2.58;;;0.60;99.90;;;;;;4970995;28;20034;-70
2024/01/15 09:07:08;;;;;;;10.20;2.50;;;0.60;99.90;;;;;;4973603;28;20030;-70
2024/01/15 09:09:34;;;;;;;6.00;2.28;;;0.60;99.90;;;;;;4973732;28;20021;-70
2024/01/15 09:12:00;;;;;;;9.70;3.72;;;0.70;99.90;;;;;;4973109;28;20050;-70
2024/01/15 09:14:26;;;;;;;5.85;2.33;;;0.70;99.90;;;;;;4970243;28;20053;-70
2024/01/15 09:16:53;;;;;;;5.50;2.05;;;0.70;99.90;;;;;;4975530;28;20118;-70
2024/01/15 09:19:19;;;;;;;4.72;2.10;;;0.70;99.90;;;;;;4972734;28;20130;-70
2024/01/15 09:21:45;;;;;;;4.82;1.83;;;0.70;99.90;;;;;;4974171;28;20632;-70
2024/01/15 09:24:10;;;;;;;7.30;2.63;;;0.70;99.90;;;;;;4972601;28;20031;-70
2024/01/15 09:26:36;;;;;;;4.88;2.17;;;0.80;99.90;;;;;;4974018;28;20050;-71
2024/01/15 09:29:02;;;;;;;6.82;2.78;;;0.80;99.90;;;;;;4974501;28;20040;-70
2024/01/15 09:31:28;;;;;;;7.63;2.17;;;0.80;99.90;;;;;;4971731;28;20029;-70
2024/01/15 09:33:59;;;;;;;6.55;2.03;;;0.80;99.90;;;;;;4965908;28;20498;-70
2024/01/15 09:36:25;;;;;;;3.92;1.80;;;0.80;99.90;;;;;;4966979;28;20023;-70
2024/01/15 09:38:51;;;;;;;4.40;1.77;;;0.90;99.90;;;;;;4965963;28;20073;-70
2024/01/15 09:41:17;;;;;;;6.65;2.53;;;0.90;99.90;;;;;;4967747;28;20023;-70
2024/01/15 09:43:43;;;;;;;5.30;2.42;;;0.90;99.90;;;;;;4970228;28;20031;-70
2024/01/15 09:46:09;;;;;;;4.53;2.42;;;0.90;99.90;;;;;;4967248;28;20031;-70
2024/01/15 09:48:34;;;;;;;7.05;1.95;;;0.90;99.90;;;;;;4969839;28;20093;-70
2024/01/15 09:51:01;;;;;;;4.63;2.30;;;0.90;99.90;;;;;;4965343;28;20072;-70
2024/01/15 09:53:27;;;;;;;4.93;1.70;;;1.00;99.90;;;;;;4966653;28;20030;-69
2024/01/15 09:55:53;;;;;;;11.23;2.42;;;1.00;99.90;;;;;;4968884;28;20023;-70
2024/01/15 09:58:18;;;;;;;27.30;3.97;;;1.00;99.90;;;;;;4965005;28;20073;-70
2024/01/15 10:00:44;;;;;;;14.82;2.45;;;1.10;99.90;;;;;;4970859;28;20039;-70
2024/01/15 10:03:11;;;;;;;5.05;2.17;;;1.10;99.90;;;;;;4971108;28;20038;-70
2024/01/15 10:05:38;;;;;;;10.55;3.00;;;1.20;99.90;;;;;;4968292;28;20506;-70
2024/01/15 10:08:04;;;;;;;7.30;2.30;;;1.20;99.90;;;;;;4964048;28;20194;-70
2024/01/15 10:10:31;;;;;;;8.15;2.30;;;1.30;99.90;;;;;;4969737;28;20027;-70
2024/01/15 10:12:59;;;;;;;6.13;2.10;;;1.20;99.90;;;;;;4968419;28;20387;-71
2024/01/15 10:15:26;;;;;;;3.95;1.70;;;1.30;99.90;;;;;;4966779;28;20066;-71
2024/01/15 10:17:52;;;;;;;5.47;1.63;;;1.30;99.90;;;;;;4968382;28;20030;-71
2024/01/15 10:20:17;;;;;;;4.40;2.08;;;1.40;99.90;;;;;;4968799;28;20040;-71
2024/01/15 10:22:46;;;;;;;7.35;2.17;;;1.40;99.90;;;;;;4968063;28;20769;-70
2024/01/15 10:25:13;;;;;;;4.72;1.60;;;1.40;99.90;;;;;;4968328;28;20451;-70
2024/01/15 10:27:42;;;;;;;8.02;1.98;;;1.40;99.90;;;;;;4966578;28;20042;-70
2024/01/15 10:30:13;;;;;;;4.75;1.63;;;1.50;99.90;;;;;;4984862;28;20031;-71
2024/01/15 10:32:41;;;;;;;7.22;1.98;;;1.40;99.90;;;;;;4967264;28;20031;-71
2024/01/15 10:35:08;;;;;;;5.35;1.83;;;1.40;99.90;;;;;;4969472;28;20118;-71
2024/01/15 10:37:34;;;;;;;6.93;1.85;;;1.50;99.90;;;;;;4968599;28;20023;-71
2024/01/15 10:40:04;;;;;;;9.25;2.75;;;1.50;99.90;;;;;;4964145;28;20030;-71
2024/01/15 10:42:30;;;;;;;5.80;2.05;;;1.50;99.90;;;;;;4967179;28;20027;-71
2024/01/15 10:44:56;;;;;;;8.23;2.70;;;1.50;99.90;;;;;;4961620;28;20053;-71
2024/01/15 10:47:23;;;;;;;14.32;2.67;;;1.50;99.90;;;;;;4972543;28;20528;-71
2024/01/15 10:49:49;;;;;;;7.40;2.45;;;1.50;99.90;;;;;;4967491;28;20061;-71
2024/01/15 10:52:15;;;;;;;6.72;3.00;;;1.60;99.90;;;;;;4966800;28;20035;-71
2024/01/15 10:54:43;;;;;;;5.18;2.05;;;1.60;99.90;;;;;;4967999;28;20054;-71
2024/01/15 10:57:08;;;;;;;5.63;2.22;;;1.60;99.90;;;;;;4967241;28;20126;-71
2024/01/15 10:59:36;;;;;;;8.77;2.35;;;1.60;99.90;;;;;;4967975;28;20110;-71
2024/01/15 11:02:01;;;;;;;5.45;2.25;;;1.60;99.90;;;;;;4971220;28;20031;-71
2024/01/15 11:04:28;;;;;;;6.68;2.35;;;1.70;99.90;;;;;;4971640;28;20037;-71
2024/01/15 11:06:55;;;;;;;9.48;2.13;;;1.70;99.90;;;;;;4968236;28;20117;-71
2024/01/15 11:09:21;;;;;;;4.97;2.28;;;1.60;99.90;;;;;;4968919;28;20019;-72
2024/01/15 11:11:47;;;;;;;4.75;1.83;;;1.70;99.90;;;;;;4967494;28;20039;-71
2024/01/15 11:14:42;;;;;;;7.68;2.35;;;1.70;99.90;;;;;;4967492;28;20106;-71
2024/01/15 11:17:09;;;;;;;6.88;2.15;;;1.60;99.90;;;;;;4964322;28;20097;-71
2024/01/15 11:19:46;;;;;;;4.60;2.10;;;1.70;99.90;;;;;;4965685;28;20034;-71
2024/01/15 11:22:30;;;;;;;5.28;2.25;;;1.60;99.90;;;;;;4969328;28;20027;-71
2024/01/15 11:24:56;;;;;;;;;;;1.70;99.90;;;;;;4968738;28;20050;-71
2024/01/15 11:27:44;;;;;;;4.90;1.83;;;1.70;99.90;;;;;;4968028;28;19918;-71
2024/01/15 11:30:11;;;;;;;4.38;1.55;;;1.70;99.90;;;;;;4969663;28;20450;-71
2024/01/15 11:32:41;;;;;;;6.93;2.00;;;1.70;99.90;;;;;;4968775;28;20082;-71
2024/01/15 11:35:08;;;;;;;5.22;1.98;;;1.60;99.90;;;;;;4970767;28;20435;-70
2024/01/15 11:37:56;;;;;;;4.97;1.95;;;1.70;99.90;;;;;;4968092;28;20023;-71
2024/01/15 11:40:22;;;;;;;4.63;1.73;;;1.60;99.90;;;;;;4969522;28;20505;-71
2024/01/15 11:42:49;;;;;;;4.35;2.10;;;1.70;99.90;;;;;;4967046;28;20038;-71
2024/01/15 11:45:22;;;;;;;4.63;1.90;;;1.60;99.90;;;;;;4968646;28;20129;-71
2024/01/15 11:48:16;;;;;;;3.50;1.90;;;1.70;99.90;;;;;;4968386;28;20430;-71
2024/01/15 11:50:45;;;;;;;5.50;1.70;;;1.70;99.90;;;;;;4974008;28;20185;-71
2024/01/15 11:53:43;;;;;;;3.78;1.70;;;1.70;99.90;;;;;;4969429;28;20026;-71
2024/01/15 11:56:15;;;;;;;4.72;1.67;;;1.60;99.90;;;;;;4964681;28;20046;-71
2024/01/15 11:58:41;;;;;;;5.22;2.15;;;1.60;99.90;;;;;;4968760;28;20038;-71
2024/01/15 12:01:07;;;;;;;4.97;2.05;;;1.60;99.90;;;;;;4968195;28;20045;-71
2024/01/15 12:03:36;;;;;;;4.63;2.08;;;1.60;99.90;;;;;;4965807;28;20030;-71
2024/01/15 12:06:01;;;;;;;4.95;2.30;;;1.50;99.90;;;;;;4954623;28;20111;-71
2024/01/15 12:08:27;;;;;;;6.80;2.83;;;1.50;99.90;;;;;;4966586;28;20113;-71
2024/01/15 12:10:53;;;;;;;7.75;2.97;;;1.50;99.90;;;;;;4964590;28;20033;-71
2024/01/15 12:13:20;;;;;;;6.40;2.95;;;1.60;99.90;;;;;;4966446;28;20023;-71
2024/01/15 12:15:47;;;;;;;8.90;3.17;;;1.60;99.90;;;;;;4967434;28;20046;-71
2024/01/15 12:18:16;;;;;;;7.05;2.47;;;1.60;99.90;;;;;;4965318;28;20030;-71
2024/01/15 12:20:42;;;;;;;6.28;2.20;;;1.70;99.90;;;;;;4970494;28;20019;-71
2024/01/15 12:23:10;;;;;;;5.32;2.40;;;1.60;99.90;;;;;;4962033;28;20027;-71
2024/01/15 12:25:37;;;;;;;4.75;1.98;;;1.60;99.90;;;;;;4968799;28;20070;-71
2024/01/15 12:28:03;;;;;;;5.88;2.40;;;1.70;99.90;;;;;;4970391;28;20046;-71
2024/01/15 12:30:32;;;;;;;4.60;2.50;;;1.60;99.90;;;;;;4968698;28;20024;-71
2024/01/15 12:33:00;;;;;;;5.07;2.53;;;1.70;99.90;;;;;;4968869;28;20030;-71
2024/01/15 12:35:26;;;;;;;5.50;2.33;;;1.60;99.90;;;;;;4970206;28;20577;-71
2024/01/15 12:37:51;;;;;;;4.55;2.63;;;1.60;99.90;;;;;;4965851;28;20121;-71
2024/01/15 12:40:22;;;;;;;7.60;2.10;;;1.60;99.90;;;;;;4962003;28;20031;-71